Time;durP1;ratioP1;P1;durP2;ratioP2;P2;SDS_P1;SDS_P2;PMS_P1;PMS_P2;Temp;Humidity;BMP_temperature;BMP_pressure;BME280_temperature;BME280_humidity;BME280_pressure;Samples;Min_cycle;Max_cycle;Signal;HPM_P1;HPM_P2
2024/03/25 00:01:46;;;;;;;12.17;7.73;;;4.90;99.90;;;;;;5075842;28;20191;-76
2024/03/25 00:04:33;;;;;;;13.77;8.33;;;4.90;99.90;;;;;;5076658;28;20492;-76
2024/03/25 00:07:20;;;;;;;13.30;8.53;;;5.00;99.90;;;;;;5077772;28;20554;-75
2024/03/25 00:10:08;;;;;;;14.37;8.47;;;4.90;99.90;;;;;;5076959;28;20202;-75
2024/03/25 00:12:56;;;;;;;15.30;9.27;;;4.80;99.90;;;;;;5076024;28;20194;-75
2024/03/25 00:15:43;;;;;;;14.27;8.40;;;4.80;99.90;;;;;;5076656;28;20198;-76
2024/03/25 00:18:30;;;;;;;17.57;9.63;;;4.80;99.90;;;;;;5080332;28;20186;-75
2024/03/25 00:21:16;;;;;;;16.70;9.40;;;4.70;99.90;;;;;;5066043;28;20196;-76
2024/03/25 00:24:03;;;;;;;17.33;9.90;;;4.60;99.90;;;;;;5079545;28;20199;-76
2024/03/25 00:26:50;;;;;;;16.40;9.30;;;4.50;99.90;;;;;;5080204;28;20600;-76
2024/03/25 00:29:36;;;;;;;16.37;9.70;;;4.40;99.90;;;;;;5080786;28;20189;-76
2024/03/25 00:32:23;;;;;;;17.80;9.43;;;4.40;99.90;;;;;;5081232;28;20197;-76
2024/03/25 00:35:09;;;;;;;16.37;9.67;;;4.40;99.90;;;;;;5080007;28;20216;-76
2024/03/25 00:37:56;;;;;;;16.73;10.10;;;4.30;99.90;;;;;;5080037;28;20249;-76
2024/03/25 00:40:42;;;;;;;21.97;10.43;;;4.30;99.90;;;;;;5079362;28;20562;-76
2024/03/25 00:43:29;;;;;;;18.10;10.27;;;4.20;99.90;;;;;;5079167;28;20198;-76
2024/03/25 00:46:15;;;;;;;18.07;10.60;;;4.20;99.90;;;;;;5066041;28;20204;-76
2024/03/25 00:49:01;;;;;;;18.10;9.93;;;4.20;99.90;;;;;;5079696;28;20210;-76
2024/03/25 00:51:48;;;;;;;19.97;10.50;;;4.20;99.90;;;;;;5065728;28;20243;-76
2024/03/25 00:54:35;;;;;;;19.20;10.67;;;4.20;99.90;;;;;;5078360;28;20194;-75
2024/03/25 00:57:21;;;;;;;17.37;10.53;;;4.10;99.90;;;;;;5077967;28;20198;-75
2024/03/25 01:00:08;;;;;;;20.70;11.00;;;4.10;99.90;;;;;;5079684;28;20194;-75
2024/03/25 01:02:54;;;;;;;20.47;11.30;;;4.10;99.90;;;;;;5079119;28;20193;-75
2024/03/25 01:05:41;;;;;;;21.53;10.90;;;4.20;99.90;;;;;;5078137;28;20206;-76
2024/03/25 01:08:27;;;;;;;22.17;11.63;;;4.00;99.90;;;;;;5078549;28;20202;-76
2024/03/25 01:11:14;;;;;;;20.30;11.33;;;4.10;99.90;;;;;;5078082;28;20698;-76
2024/03/25 01:14:00;;;;;;;20.67;11.67;;;4.10;99.90;;;;;;5078947;28;20199;-77
2024/03/25 01:16:47;;;;;;;20.90;11.83;;;4.10;99.90;;;;;;5078738;28;20190;-76
2024/03/25 01:19:34;;;;;;;23.60;12.03;;;4.10;99.90;;;;;;5078752;28;20219;-76
2024/03/25 01:22:20;;;;;;;21.70;11.77;;;4.00;99.90;;;;;;5078761;28;20198;-76
2024/03/25 01:25:07;;;;;;;24.27;12.03;;;4.10;99.90;;;;;;5078524;28;20189;-78
2024/03/25 01:27:54;;;;;;;22.10;12.07;;;4.10;99.90;;;;;;5063987;28;20559;-77
2024/03/25 01:30:40;;;;;;;21.43;12.20;;;4.10;99.90;;;;;;5077995;28;20226;-77
2024/03/25 01:33:27;;;;;;;24.87;12.20;;;4.10;99.90;;;;;;5078973;28;20196;-77
2024/03/25 01:36:17;;;;;;;24.07;12.40;;;4.10;99.90;;;;;;5078810;28;20614;-77
2024/03/25 01:39:05;;;;;;;21.30;11.73;;;4.10;99.90;;;;;;5077680;28;20194;-77
2024/03/25 01:41:51;;;;;;;23.73;12.47;;;4.00;99.90;;;;;;5078598;28;20214;-77
2024/03/25 01:44:37;;;;;;;24.17;12.83;;;3.90;99.90;;;;;;5077896;28;20391;-78
2024/03/25 01:47:24;;;;;;;22.27;12.83;;;3.90;99.90;;;;;;5078011;28;20192;-78
2024/03/25 01:50:11;;;;;;;22.17;12.63;;;3.90;99.90;;;;;;5078220;28;20264;-77
2024/03/25 01:52:57;;;;;;;21.97;11.97;;;3.90;99.90;;;;;;5077579;28;20199;-76
2024/03/25 01:55:44;;;;;;;23.77;12.70;;;3.90;99.90;;;;;;5064621;28;20190;-75
2024/03/25 01:58:31;;;;;;;24.87;12.93;;;3.90;99.90;;;;;;5078962;28;20187;-77
2024/03/25 02:01:20;;;;;;;22.00;12.23;;;3.90;99.90;;;;;;5078363;28;20203;-77
2024/03/25 02:04:07;;;;;;;22.60;12.07;;;3.90;99.90;;;;;;5077043;28;20214;-78
2024/03/25 02:06:55;;;;;;;22.50;12.50;;;4.00;99.90;;;;;;5077929;28;20561;-77
2024/03/25 02:09:42;;;;;;;22.47;12.27;;;4.00;99.90;;;;;;5077625;28;20236;-77
2024/03/25 02:12:30;;;;;;;21.80;12.10;;;4.00;99.90;;;;;;5078253;28;20204;-77
2024/03/25 02:15:17;;;;;;;24.30;11.93;;;3.90;99.90;;;;;;5063858;28;20217;-75
2024/03/25 02:18:04;;;;;;;23.27;12.43;;;4.00;99.90;;;;;;5078042;28;20195;-75
2024/03/25 02:20:50;;;;;;;22.90;12.10;;;4.10;99.90;;;;;;5077571;28;20660;-75
2024/03/25 02:23:42;;;;;;;22.20;12.10;;;4.10;99.90;;;;;;5077387;28;20192;-75
2024/03/25 02:26:29;;;;;;;24.27;12.57;;;4.00;99.90;;;;;;5063066;28;20191;-75
2024/03/25 02:29:16;;;;;;;23.90;12.67;;;4.00;99.90;;;;;;5077274;28;20567;-76
2024/03/25 02:32:02;;;;;;;21.93;11.83;;;4.00;99.90;;;;;;5077303;28;20243;-77
2024/03/25 02:34:52;;;;;;;23.33;12.37;;;4.00;99.90;;;;;;5049463;28;20217;-76
2024/03/25 02:37:39;;;;;;;22.27;12.13;;;4.00;99.90;;;;;;5076624;28;20580;-77
2024/03/25 02:40:27;;;;;;;23.63;12.33;;;4.00;99.90;;;;;;5077306;28;20198;-76
2024/03/25 02:43:13;;;;;;;21.80;12.37;;;3.90;99.90;;;;;;5062093;28;20197;-75
2024/03/25 02:46:00;;;;;;;25.17;12.40;;;3.90;99.90;;;;;;5076940;28;20196;-76
2024/03/25 02:48:46;;;;;;;20.47;12.00;;;4.00;99.90;;;;;;5077017;28;20272;-76
2024/03/25 02:51:33;;;;;;;22.63;12.47;;;3.90;99.90;;;;;;5076234;28;20633;-76
2024/03/25 02:54:19;;;;;;;22.93;12.37;;;3.90;99.90;;;;;;5077311;28;20646;-76
2024/03/25 02:57:06;;;;;;;23.90;11.90;;;3.90;99.90;;;;;;5076276;28;20638;-76
2024/03/25 02:59:53;;;;;;;22.60;12.67;;;4.00;99.90;;;;;;5076739;28;20190;-76
2024/03/25 03:02:40;;;;;;;24.67;12.30;;;3.90;99.90;;;;;;5076523;28;20190;-77
2024/03/25 03:05:27;;;;;;;21.40;12.00;;;3.90;99.90;;;;;;5076444;28;20682;-76
2024/03/25 03:08:13;;;;;;;22.03;12.30;;;3.90;99.90;;;;;;5063271;28;20187;-77
2024/03/25 03:10:59;;;;;;;22.23;12.07;;;3.90;99.90;;;;;;5076340;28;20209;-76
2024/03/25 03:13:46;;;;;;;22.27;12.70;;;4.00;99.90;;;;;;5075982;28;20189;-76
2024/03/25 03:16:32;;;;;;;24.43;12.57;;;3.90;99.90;;;;;;5076637;28;20200;-76
2024/03/25 03:19:18;;;;;;;20.93;12.10;;;3.90;99.90;;;;;;5075646;28;20206;-76
2024/03/25 03:22:05;;;;;;;22.60;12.27;;;3.90;99.90;;;;;;5076398;28;20742;-76
2024/03/25 03:24:51;;;;;;;24.83;12.40;;;3.90;99.90;;;;;;5076597;28;20191;-76
2024/03/25 03:27:38;;;;;;;21.33;12.90;;;3.90;99.90;;;;;;5063105;28;20280;-76
2024/03/25 03:30:25;;;;;;;25.87;12.67;;;4.00;99.90;;;;;;5076438;28;20232;-76
2024/03/25 03:33:11;;;;;;;20.23;11.87;;;3.90;99.90;;;;;;5075805;28;20190;-76
2024/03/25 03:35:58;;;;;;;25.43;13.23;;;3.90;99.90;;;;;;5061986;28;20198;-76
2024/03/25 03:38:45;;;;;;;23.63;12.50;;;3.90;99.90;;;;;;5076717;28;20189;-76
2024/03/25 03:41:32;;;;;;;23.97;12.63;;;3.80;99.90;;;;;;5077347;28;20197;-77
2024/03/25 03:44:18;;;;;;;24.07;13.07;;;3.80;99.90;;;;;;5061897;28;20665;-76
2024/03/25 03:47:05;;;;;;;25.97;13.00;;;3.80;99.90;;;;;;5076054;28;20188;-76
2024/03/25 03:49:51;;;;;;;24.23;13.00;;;3.60;99.90;;;;;;5076019;28;20218;-76
2024/03/25 03:52:38;;;;;;;24.63;12.90;;;3.60;99.90;;;;;;5082738;28;20201;-77
2024/03/25 03:55:24;;;;;;;23.53;13.20;;;3.50;99.90;;;;;;5069417;28;20197;-77
2024/03/25 03:58:11;;;;;;;29.90;13.97;;;3.60;99.90;;;;;;5082694;28;20199;-76
2024/03/25 04:00:58;;;;;;;26.73;12.90;;;3.60;99.90;;;;;;5082640;28;20204;-75
2024/03/25 04:03:44;;;;;;;24.60;12.93;;;3.50;99.90;;;;;;5082638;28;20189;-76
2024/03/25 04:06:31;;;;;;;22.97;13.30;;;3.60;99.90;;;;;;5082639;28;20193;-76
2024/03/25 04:09:18;;;;;;;25.57;13.13;;;3.40;99.90;;;;;;5083062;28;20213;-76
2024/03/25 04:12:05;;;;;;;23.77;12.60;;;3.50;99.90;;;;;;5082043;28;20234;-76
2024/03/25 04:14:55;;;;;;;21.10;12.23;;;3.40;99.90;;;;;;5083075;28;20186;-77
2024/03/25 04:17:43;;;;;;;22.40;12.90;;;3.50;99.90;;;;;;5082357;28;20243;-76
2024/03/25 04:20:35;;;;;;;25.40;12.87;;;3.50;99.90;;;;;;5083614;28;20269;-76
2024/03/25 04:23:22;;;;;;;23.23;12.60;;;3.50;99.90;;;;;;5082952;28;20646;-77
2024/03/25 04:26:09;;;;;;;24.80;13.47;;;3.60;99.90;;;;;;5083675;28;20251;-75
2024/03/25 04:28:55;;;;;;;23.07;12.43;;;3.60;99.90;;;;;;5082320;28;20195;-75
2024/03/25 04:31:42;;;;;;;21.13;11.80;;;3.60;99.90;;;;;;5068600;28;20227;-75
2024/03/25 04:34:29;;;;;;;22.77;12.30;;;3.70;99.90;;;;;;5081730;28;20252;-75
2024/03/25 04:37:16;;;;;;;21.03;12.00;;;3.70;99.90;;;;;;5082240;28;20248;-75
2024/03/25 04:40:03;;;;;;;25.10;12.50;;;3.70;99.90;;;;;;5082388;28;20201;-75
2024/03/25 04:42:49;;;;;;;21.97;11.97;;;3.70;99.90;;;;;;5082284;28;20200;-75
2024/03/25 04:45:36;;;;;;;24.10;11.30;;;3.70;99.90;;;;;;5081620;28;20722;-75
2024/03/25 04:48:22;;;;;;;19.70;11.37;;;3.80;99.90;;;;;;5081893;28;20197;-75
2024/03/25 04:51:09;;;;;;;25.00;12.10;;;3.80;99.90;;;;;;5082054;28;20697;-75
2024/03/25 04:53:56;;;;;;;22.90;11.83;;;3.80;99.90;;;;;;5082149;28;20197;-77
2024/03/25 04:56:44;;;;;;;23.60;11.57;;;3.80;99.90;;;;;;5081793;28;20194;-77
2024/03/25 04:59:30;;;;;;;20.30;11.23;;;3.90;99.90;;;;;;5083371;28;20681;-77
2024/03/25 05:02:17;;;;;;;23.77;11.90;;;4.00;99.90;;;;;;5079183;28;20190;-77
2024/03/25 05:05:07;;;;;;;21.37;11.43;;;3.90;99.90;;;;;;5080346;28;20232;-77
2024/03/25 05:07:54;;;;;;;20.73;11.17;;;4.00;99.90;;;;;;5078272;28;20192;-77
2024/03/25 05:10:40;;;;;;;21.07;11.43;;;4.00;99.90;;;;;;5065039;28;20214;-77
2024/03/25 05:13:27;;;;;;;19.97;11.23;;;4.00;99.90;;;;;;5078199;28;20193;-77
2024/03/25 05:16:13;;;;;;;20.63;11.40;;;4.00;99.90;;;;;;5078938;28;20562;-77
2024/03/25 05:19:00;;;;;;;22.47;11.30;;;4.00;99.90;;;;;;5065285;28;20239;-77
2024/03/25 05:21:46;;;;;;;19.37;10.97;;;4.10;99.90;;;;;;5078817;28;20192;-77
2024/03/25 05:24:33;;;;;;;23.87;11.37;;;4.10;99.90;;;;;;5079752;28;20189;-76
2024/03/25 05:27:19;;;;;;;21.23;10.90;;;4.10;99.90;;;;;;5078528;28;20205;-77
2024/03/25 05:30:06;;;;;;;20.57;10.77;;;4.10;99.90;;;;;;5078382;28;20196;-76
2024/03/25 05:32:53;;;;;;;20.80;11.17;;;4.10;99.90;;;;;;5077711;28;20198;-76
2024/03/25 05:35:41;;;;;;;21.57;11.53;;;4.20;99.90;;;;;;5078609;28;20636;-76
2024/03/25 05:38:28;;;;;;;21.63;11.67;;;4.10;99.90;;;;;;5078839;28;20204;-78
2024/03/25 05:41:14;;;;;;;22.37;11.10;;;4.10;99.90;;;;;;5064990;28;20198;-78
2024/03/25 05:44:01;;;;;;;23.83;11.57;;;4.10;99.90;;;;;;5079117;28;20199;-76
2024/03/25 05:46:47;;;;;;;20.10;10.53;;;4.10;99.90;;;;;;5078280;28;20198;-76
2024/03/25 05:49:33;;;;;;;19.30;11.00;;;4.20;99.90;;;;;;5077311;28;20210;-77
2024/03/25 05:52:20;;;;;;;21.83;10.80;;;4.30;99.90;;;;;;5078574;28;20717;-76
2024/03/25 05:55:07;;;;;;;24.93;11.50;;;4.30;99.90;;;;;;5077691;28;20193;-77
2024/03/25 05:57:53;;;;;;;19.60;10.67;;;4.30;99.90;;;;;;5078036;28;20191;-77
2024/03/25 06:00:40;;;;;;;17.60;10.53;;;4.20;99.90;;;;;;5077872;28;20750;-77
2024/03/25 06:03:26;;;;;;;19.10;11.17;;;4.20;99.90;;;;;;5078022;28;20205;-77
2024/03/25 06:06:13;;;;;;;21.67;10.77;;;4.30;99.90;;;;;;5077784;28;20197;-77
2024/03/25 06:08:59;;;;;;;20.53;10.97;;;4.40;99.90;;;;;;5077367;28;20557;-76
2024/03/25 06:11:45;;;;;;;19.30;10.37;;;4.50;99.90;;;;;;5077652;28;20232;-76
2024/03/25 06:14:32;;;;;;;17.97;10.30;;;4.60;99.90;;;;;;5064221;28;20509;-76
2024/03/25 06:17:18;;;;;;;20.30;10.47;;;4.70;99.90;;;;;;5078724;28;20198;-77
2024/03/25 06:20:05;;;;;;;18.53;10.30;;;4.90;99.90;;;;;;5064160;28;20216;-76
2024/03/25 06:22:51;;;;;;;17.13;9.87;;;5.00;99.90;;;;;;5077688;28;20204;-76
2024/03/25 06:25:38;;;;;;;18.83;9.67;;;5.10;99.90;;;;;;5063692;28;20200;-77
2024/03/25 06:28:24;;;;;;;16.70;9.20;;;5.20;99.90;;;;;;5077748;28;20192;-76
2024/03/25 06:34:21;;;;;;;16.40;9.30;;;5.50;99.90;;;;;;5077931;28;20228;-76
2024/03/25 06:37:08;;;;;;;15.33;8.67;;;5.60;99.90;;;;;;5076677;28;20237;-76
2024/03/25 06:39:55;;;;;;;17.17;9.07;;;5.70;99.90;;;;;;5064322;28;20641;-74
2024/03/25 06:42:41;;;;;;;15.17;8.97;;;5.80;99.90;;;;;;5077325;28;20194;-74
2024/03/25 06:45:27;;;;;;;20.37;8.90;;;5.80;99.90;;;;;;5077640;28;20205;-75
2024/03/25 06:48:14;;;;;;;18.70;9.47;;;5.70;99.90;;;;;;5076848;28;20669;-74
2024/03/25 06:51:02;;;;;;;20.33;9.47;;;5.80;99.90;;;;;;5077308;28;20218;-75
2024/03/25 06:53:49;;;;;;;16.63;8.97;;;5.80;99.90;;;;;;5077932;28;20216;-74
2024/03/25 06:56:35;;;;;;;17.43;9.00;;;5.90;99.90;;;;;;5078511;28;20196;-74
2024/03/25 06:59:21;;;;;;;15.40;8.87;;;6.00;99.90;;;;;;5077822;28;20183;-74
2024/03/25 07:02:07;;;;;;;14.50;7.97;;;6.10;99.90;;;;;;5077136;28;20202;-74
2024/03/25 07:04:54;;;;;;;15.53;8.10;;;6.10;99.90;;;;;;5078217;28;20206;-74
2024/03/25 07:07:40;;;;;;;15.33;8.43;;;6.20;99.90;;;;;;5076669;28;20232;-75
2024/03/25 07:10:27;;;;;;;15.40;8.40;;;6.20;99.90;;;;;;5089791;28;20199;-74
2024/03/25 07:13:13;;;;;;;12.83;7.27;;;6.20;99.90;;;;;;5077195;28;20657;-75
2024/03/25 07:16:00;;;;;;;14.60;8.10;;;6.40;99.90;;;;;;5076991;28;20200;-76
2024/03/25 07:18:46;;;;;;;13.80;7.60;;;6.70;99.90;;;;;;5077964;28;20571;-76
2024/03/25 07:21:32;;;;;;;13.80;7.70;;;6.70;99.90;;;;;;5076120;28;20548;-74
2024/03/25 07:24:19;;;;;;;14.17;7.57;;;6.80;99.90;;;;;;5076172;28;20203;-75
2024/03/25 07:27:07;;;;;;;12.83;7.10;;;6.90;99.90;;;;;;5076383;28;20202;-74
2024/03/25 07:29:53;;;;;;;12.60;7.23;;;6.90;99.90;;;;;;5077397;28;20190;-74
2024/03/25 07:32:40;;;;;;;15.03;7.53;;;6.90;99.90;;;;;;5076026;28;20217;-74
2024/03/25 07:35:26;;;;;;;11.63;7.13;;;7.10;99.90;;;;;;5077857;28;20216;-74
2024/03/25 07:38:13;;;;;;;14.10;7.27;;;7.20;99.90;;;;;;5063506;28;20234;-74
2024/03/25 07:41:04;;;;;;;12.40;7.47;;;7.30;99.90;;;;;;5076757;28;20195;-74
2024/03/25 07:43:50;;;;;;;13.23;7.33;;;7.30;99.90;;;;;;5064198;28;20191;-74
2024/03/25 07:46:37;;;;;;;11.73;6.93;;;7.40;99.90;;;;;;5063632;28;20200;-75
2024/03/25 07:49:23;;;;;;;12.20;6.63;;;7.50;99.90;;;;;;5075963;28;20258;-75
2024/03/25 07:52:10;;;;;;;12.17;6.93;;;7.60;99.90;;;;;;5077119;28;20225;-75
2024/03/25 07:54:56;;;;;;;15.27;7.07;;;7.60;99.90;;;;;;5075765;28;20197;-75
2024/03/25 07:57:42;;;;;;;13.03;7.47;;;7.90;99.90;;;;;;5077035;28;20192;-75
2024/03/25 08:00:29;;;;;;;15.23;7.17;;;7.70;99.90;;;;;;5077703;28;20207;-75
2024/03/25 08:03:15;;;;;;;12.40;7.10;;;7.90;99.90;;;;;;5075441;28;20192;-75
2024/03/25 08:06:03;;;;;;;11.43;6.63;;;8.00;99.90;;;;;;5090395;28;20196;-74
2024/03/25 08:08:50;;;;;;;14.07;7.17;;;8.20;99.90;;;;;;5074899;28;20199;-75
2024/03/25 08:11:37;;;;;;;12.87;7.30;;;8.20;99.90;;;;;;5076484;28;20265;-74
2024/03/25 08:14:24;;;;;;;12.77;6.97;;;8.30;99.90;;;;;;5063070;28;20521;-77
2024/03/25 08:17:10;;;;;;;11.33;6.83;;;8.60;99.90;;;;;;5076993;28;20192;-77
2024/03/25 08:19:56;;;;;;;10.40;6.63;;;8.80;99.90;;;;;;5062287;28;20692;-76
2024/03/25 08:22:43;;;;;;;11.97;6.83;;;9.10;99.90;;;;;;5076775;28;20196;-74
2024/03/25 08:25:30;;;;;;;10.00;6.17;;;9.10;99.90;;;;;;5076148;28;20185;-75
2024/03/25 08:28:16;;;;;;;10.37;6.13;;;9.30;99.90;;;;;;5075714;28;20680;-74
2024/03/25 08:31:03;;;;;;;12.33;6.30;;;9.40;99.90;;;;;;5076172;28;20213;-75
2024/03/25 08:33:49;;;;;;;8.80;5.47;;;9.60;99.90;;;;;;5075045;28;20213;-75
2024/03/25 08:36:35;;;;;;;9.43;5.47;;;10.50;99.90;;;;;;5062029;28;20585;-74
2024/03/25 08:39:22;;;;;;;9.60;6.13;;;11.10;99.90;;;;;;5080242;28;20199;-75
2024/03/25 08:42:08;;;;;;;8.73;5.37;;;11.10;99.90;;;;;;5080747;28;20194;-74
2024/03/25 08:44:54;;;;;;;10.27;5.97;;;11.10;99.90;;;;;;5065514;28;20658;-75
2024/03/25 08:47:42;;;;;;;8.73;5.60;;;11.50;99.90;;;;;;5080353;28;20198;-75
2024/03/25 08:50:28;;;;;;;7.17;4.17;;;11.40;99.90;;;;;;5079606;28;20221;-75
2024/03/25 08:53:15;;;;;;;13.70;4.80;;;11.30;99.90;;;;;;5081464;28;20568;-74
2024/03/25 08:56:01;;;;;;;8.60;5.00;;;11.50;99.90;;;;;;5080167;28;20189;-75
2024/03/25 08:58:48;;;;;;;7.80;4.57;;;11.30;99.90;;;;;;5078797;28;20653;-75
2024/03/25 09:01:34;;;;;;;6.80;4.50;;;11.20;99.90;;;;;;5077971;28;20200;-79
2024/03/25 09:04:21;;;;;;;7.93;4.50;;;11.60;99.90;;;;;;5079483;28;20583;-79
2024/03/25 09:07:08;;;;;;;8.30;4.80;;;11.90;99.90;;;;;;5080077;28;20201;-79
2024/03/25 09:12:59;;;;;;;8.23;4.70;;;12.40;99.90;;;;;;5079004;28;20193;-79
2024/03/25 09:15:45;;;;;;;7.07;4.60;;;12.70;99.90;;;;;;5079311;28;20199;-79
2024/03/25 09:18:32;;;;;;;8.30;4.80;;;13.00;99.90;;;;;;5079206;28;20683;-79
2024/03/25 09:21:18;;;;;;;8.23;4.60;;;13.00;99.90;;;;;;5079016;28;20194;-79
2024/03/25 09:24:05;;;;;;;8.47;4.67;;;13.40;99.90;;;;;;5066879;28;20191;-79
2024/03/25 09:26:52;;;;;;;7.60;4.10;;;13.70;99.90;;;;;;5077999;28;20217;-78
2024/03/25 09:29:38;;;;;;;11.03;4.40;;;13.90;99.90;;;;;;5079122;28;20195;-79
2024/03/25 09:32:26;;;;;;;9.53;3.97;;;14.10;99.90;;;;;;5078889;28;20220;-79
2024/03/25 09:35:13;;;;;;;4.73;3.30;;;14.40;99.90;;;;;;5078831;28;20246;-79
2024/03/25 09:37:59;;;;;;;6.07;3.87;;;14.80;99.90;;;;;;5077917;28;20241;-79
2024/03/25 09:40:47;;;;;;;6.80;3.50;;;14.40;99.90;;;;;;5079152;28;20288;-80
2024/03/25 09:43:45;;;;;;;5.70;3.70;;;14.50;99.90;;;;;;5078817;28;20199;-79
2024/03/25 09:46:33;;;;;;;5.70;3.40;;;14.40;99.90;;;;;;5079833;28;20198;-79
2024/03/25 09:49:21;;;;;;;6.17;3.77;;;14.30;99.90;;;;;;5077913;28;20277;-79
2024/03/25 09:52:08;;;;;;;5.60;3.50;;;14.80;99.90;;;;;;5065247;28;20221;-80
2024/03/25 09:54:55;;;;;;;6.17;3.80;;;15.00;99.90;;;;;;5078633;28;20197;-76
2024/03/25 09:57:45;;;;;;;6.03;3.70;;;14.20;99.90;;;;;;5079094;28;20193;-75
2024/03/25 10:00:32;;;;;;;7.13;4.40;;;13.70;99.90;;;;;;5077688;28;20193;-75
2024/03/25 10:03:21;;;;;;;6.97;3.70;;;13.90;99.90;;;;;;5062943;28;20194;-75
2024/03/25 10:06:09;;;;;;;6.47;3.73;;;13.80;99.90;;;;;;5064415;28;20375;-75
2024/03/25 10:08:57;;;;;;;5.87;3.50;;;13.00;99.90;;;;;;5078849;28;20216;-75
2024/03/25 10:11:46;;;;;;;5.60;3.67;;;13.70;99.90;;;;;;5077537;28;20226;-75
2024/03/25 10:14:33;;;;;;;6.73;4.00;;;13.90;99.90;;;;;;5064192;28;20199;-75
2024/03/25 10:17:19;;;;;;;4.20;3.27;;;13.50;99.90;;;;;;5078067;28;20246;-76
2024/03/25 10:20:09;;;;;;;5.07;3.43;;;13.40;99.90;;;;;;5077988;28;20213;-79
2024/03/25 10:22:57;;;;;;;6.37;4.10;;;12.70;99.90;;;;;;5062526;28;20194;-79
2024/03/25 10:25:47;;;;;;;5.20;3.80;;;12.00;99.90;;;;;;5064392;28;20234;-77
2024/03/25 10:28:35;;;;;;;7.07;4.03;;;12.00;99.90;;;;;;5064587;28;20182;-78
2024/03/25 10:31:21;;;;;;;6.20;4.20;;;11.80;99.90;;;;;;5090912;28;20209;-77
2024/03/25 10:34:08;;;;;;;6.00;3.80;;;11.60;99.90;;;;;;5077639;28;20234;-77
2024/03/25 10:36:58;;;;;;;6.40;4.33;;;11.60;99.90;;;;;;5076563;28;20229;-77
2024/03/25 10:39:52;;;;;;;6.03;4.40;;;11.80;99.90;;;;;;5076792;28;20200;-77
2024/03/25 10:42:40;;;;;;;7.53;4.40;;;12.10;99.90;;;;;;5077486;28;20607;-77
2024/03/25 10:45:33;;;;;;;7.33;4.00;;;12.30;99.90;;;;;;5077028;28;20194;-76
2024/03/25 10:48:29;;;;;;;7.50;4.30;;;12.10;99.90;;;;;;5077457;28;20182;-77
2024/03/25 10:51:15;;;;;;;5.83;3.57;;;11.90;99.90;;;;;;5063510;28;20217;-77
2024/03/25 10:54:03;;;;;;;6.10;3.60;;;11.90;99.90;;;;;;5077946;28;20186;-77
2024/03/25 10:56:51;;;;;;;4.83;3.23;;;11.80;99.90;;;;;;5077433;28;20415;-77
2024/03/25 10:59:41;;;;;;;6.03;3.10;;;11.70;99.90;;;;;;5077040;28;20196;-77
2024/03/25 11:02:27;;;;;;;5.30;3.70;;;11.70;99.90;;;;;;5077047;28;20683;-76
2024/03/25 11:05:15;;;;;;;5.83;3.87;;;11.70;99.90;;;;;;5077118;28;20217;-76
2024/03/25 11:08:15;;;;;;;5.93;3.50;;;12.30;99.90;;;;;;5077186;28;20194;-77
2024/03/25 11:11:02;;;;;;;5.30;3.33;;;12.90;99.90;;;;;;5076060;28;20273;-76
2024/03/25 11:13:49;;;;;;;5.37;3.47;;;13.10;99.90;;;;;;5077613;28;20185;-76
2024/03/25 11:16:36;;;;;;;5.40;3.10;;;13.30;99.90;;;;;;5077009;28;20676;-75
2024/03/25 11:19:26;;;;;;;5.00;2.97;;;13.40;99.90;;;;;;5075753;28;20217;-76
2024/03/25 11:22:14;;;;;;;4.37;2.60;;;14.20;99.90;;;;;;5063522;28;20561;-76
2024/03/25 11:25:07;;;;;;;4.73;2.73;;;14.70;99.90;;;;;;5076366;28;20189;-76
2024/03/25 11:27:53;;;;;;;3.73;2.50;;;15.00;99.90;;;;;;5061421;28;20196;-76
2024/03/25 11:30:41;;;;;;;4.60;2.70;;;15.80;99.50;;;;;;5076800;28;20232;-76
2024/03/25 11:33:27;;;;;;;4.40;2.93;;;16.00;97.90;;;;;;5077247;28;20189;-76
2024/03/25 11:36:15;;;;;;;4.60;2.90;;;17.10;97.00;;;;;;5075957;28;20277;-77
2024/03/25 11:39:09;;;;;;;4.53;3.00;;;17.30;95.30;;;;;;5062770;28;20201;-76
2024/03/25 11:41:55;;;;;;;6.47;3.10;;;17.20;95.00;;;;;;5078081;28;20192;-77
2024/03/25 11:44:43;;;;;;;4.27;3.00;;;17.10;95.00;;;;;;5076581;28;20585;-77
2024/03/25 11:47:32;;;;;;;5.03;2.90;;;16.20;94.80;;;;;;5077648;28;20212;-80
2024/03/25 11:50:19;;;;;;;5.63;3.10;;;15.50;96.50;;;;;;5076075;28;20712;-76
2024/03/25 11:53:05;;;;;;;5.80;3.40;;;15.00;97.90;;;;;;5076549;28;20273;-76
2024/03/25 11:55:52;;;;;;;4.33;3.00;;;14.90;98.10;;;;;;5076951;28;20196;-76
2024/03/25 11:58:39;;;;;;;3.60;2.60;;;16.20;97.20;;;;;;5060651;28;20219;-77
2024/03/25 12:01:25;;;;;;;3.80;2.53;;;16.40;94.20;;;;;;5075401;28;20557;-76
2024/03/25 12:04:19;;;;;;;5.93;2.80;;;17.00;92.60;;;;;;5062269;28;20213;-76
2024/03/25 12:07:05;;;;;;;5.27;2.77;;;17.50;91.30;;;;;;5076302;28;20193;-76
2024/03/25 12:12:56;;;;;;;5.80;2.40;;;18.40;89.30;;;;;;5078623;28;20213;-77
2024/03/25 12:15:43;;;;;;;4.50;2.80;;;18.60;85.60;;;;;;5080191;28;20192;-77
2024/03/25 12:18:29;;;;;;;4.57;3.00;;;16.80;89.50;;;;;;5079703;28;20803;-76
2024/03/25 12:21:16;;;;;;;5.73;3.20;;;15.40;93.60;;;;;;5066232;28;20205;-76
2024/03/25 12:24:02;;;;;;;4.83;3.10;;;14.90;94.80;;;;;;5080001;28;20641;-76
2024/03/25 12:26:49;;;;;;;6.33;3.43;;;14.20;97.10;;;;;;5078837;28;20566;-76
2024/03/25 12:29:35;;;;;;;5.90;3.03;;;14.10;98.40;;;;;;5079984;28;20186;-76
2024/03/25 12:32:21;;;;;;;3.83;2.50;;;13.80;99.80;;;;;;5066200;28;20239;-77
2024/03/25 12:35:13;;;;;;;2.70;2.20;;;14.00;99.40;;;;;;5079839;28;20205;-76
2024/03/25 12:37:59;;;;;;;4.03;2.10;;;13.70;98.70;;;;;;5079329;28;20713;-76
2024/03/25 12:40:47;;;;;;;3.00;1.90;;;13.50;98.60;;;;;;5079849;28;20194;-76
2024/03/25 12:43:42;;;;;;;3.40;2.10;;;13.00;98.90;;;;;;5067293;28;20193;-77
2024/03/25 12:46:29;;;;;;;3.07;1.90;;;13.00;99.30;;;;;;5051969;28;20196;-76
2024/03/25 12:49:16;;;;;;;2.63;1.80;;;13.10;99.00;;;;;;5092252;28;20217;-76
2024/03/25 12:52:05;;;;;;;2.67;1.90;;;13.20;99.60;;;;;;5079008;28;20228;-77
2024/03/25 12:54:52;;;;;;;3.10;2.30;;;13.40;99.90;;;;;;5079563;28;20186;-76
2024/03/25 12:57:38;;;;;;;3.33;2.30;;;14.00;99.90;;;;;;5079598;28;20197;-77
2024/03/25 13:00:24;;;;;;;3.97;2.70;;;15.10;98.80;;;;;;5078178;28;20208;-76
2024/03/25 13:03:12;;;;;;;3.10;2.30;;;16.30;97.10;;;;;;5079273;28;20193;-77
2024/03/25 13:05:59;;;;;;;3.87;2.97;;;16.90;95.80;;;;;;5079882;28;20193;-77
2024/03/25 13:08:46;;;;;;;3.37;2.53;;;15.90;96.30;;;;;;5078478;28;20330;-76
2024/03/25 13:11:32;;;;;;;4.40;2.67;;;14.70;99.10;;;;;;5079709;28;20227;-76
2024/03/25 13:14:19;;;;;;;4.23;2.87;;;14.10;99.90;;;;;;5079052;28;20195;-77
2024/03/25 13:17:05;;;;;;;3.93;2.73;;;13.90;99.90;;;;;;5079612;28;20193;-76
2024/03/25 13:19:52;;;;;;;4.53;2.50;;;13.10;99.90;;;;;;5064472;28;20272;-76
2024/03/25 13:22:38;;;;;;;3.53;2.50;;;12.40;99.90;;;;;;5080427;28;20649;-77
2024/03/25 13:25:24;;;;;;;5.83;2.60;;;12.10;99.90;;;;;;5078844;28;20559;-76
2024/03/25 13:28:10;;;;;;;4.13;2.43;;;12.10;99.90;;;;;;5065168;28;20192;-76
2024/03/25 13:30:57;;;;;;;3.80;2.67;;;12.00;99.90;;;;;;5078957;28;20197;-76
2024/03/25 13:33:43;;;;;;;3.43;2.33;;;11.60;99.90;;;;;;5078293;28;20657;-77
2024/03/25 13:36:29;;;;;;;3.73;2.73;;;11.30;99.90;;;;;;5078319;28;20591;-76
2024/03/25 13:39:16;;;;;;;3.27;2.60;;;11.30;99.90;;;;;;5078402;28;20193;-76
2024/03/25 13:42:03;;;;;;;3.77;2.57;;;11.20;99.90;;;;;;5065615;28;20630;-77
2024/03/25 13:44:49;;;;;;;5.77;3.33;;;11.10;99.90;;;;;;5079025;28;20200;-76
2024/03/25 13:47:36;;;;;;;5.43;3.60;;;11.00;99.90;;;;;;5078817;28;20190;-76
2024/03/25 13:50:22;;;;;;;6.03;4.03;;;11.10;99.90;;;;;;5078054;28;20216;-76
2024/03/25 13:53:12;;;;;;;6.43;3.53;;;12.00;99.90;;;;;;5064647;28;20232;-77
2024/03/25 13:55:59;;;;;;;4.77;3.40;;;13.30;99.90;;;;;;5078598;28;20202;-76
2024/03/25 13:58:46;;;;;;;3.73;3.10;;;13.90;99.90;;;;;;5076861;28;20646;-76
2024/03/25 14:01:33;;;;;;;5.13;3.40;;;13.60;99.90;;;;;;5078414;28;20190;-77
2024/03/25 14:04:23;;;;;;;5.47;3.83;;;13.50;99.90;;;;;;5065415;28;20213;-78
2024/03/25 14:07:10;;;;;;;4.90;3.93;;;13.40;99.90;;;;;;5065972;28;20205;-79
2024/03/25 14:09:56;;;;;;;5.13;3.67;;;13.80;99.90;;;;;;5078365;28;20234;-81
2024/03/25 14:12:43;;;;;;;4.90;3.80;;;14.00;99.90;;;;;;5076770;28;20233;-81
2024/03/25 14:15:29;;;;;;;5.83;4.10;;;13.30;99.90;;;;;;5064487;28;20198;-80
2024/03/25 14:18:19;;;;;;;5.20;3.90;;;12.80;99.90;;;;;;5076996;28;20182;-81
2024/03/25 14:21:05;;;;;;;5.07;3.50;;;12.50;99.90;;;;;;5077229;28;20238;-81
2024/03/25 14:23:52;;;;;;;4.17;3.33;;;11.90;99.90;;;;;;5091411;28;20638;-81
2024/03/25 14:26:38;;;;;;;5.03;3.50;;;11.60;99.90;;;;;;5076947;28;20205;-81
2024/03/25 14:29:25;;;;;;;4.97;3.50;;;11.30;99.90;;;;;;5078125;28;20193;-81
2024/03/25 14:32:11;;;;;;;4.80;3.83;;;10.80;99.90;;;;;;5077346;28;20255;-80
2024/03/25 14:34:58;;;;;;;4.57;3.33;;;11.00;99.90;;;;;;5075720;28;20209;-80